Time;durP1;ratioP1;P1;durP2;ratioP2;P2;SDS_P1;SDS_P2;PMS_P1;PMS_P2;Temp;Humidity;BMP_temperature;BMP_pressure;BME280_temperature;BME280_humidity;BME280_pressure;Samples;Min_cycle;Max_cycle;Signal;HPM_P1;HPM_P2
2021/06/06 00:00:39;;;;;;;12.85;4.60;;;18.50;64.00;;;;;;5052598;28;20459;-81
2021/06/06 00:03:08;;;;;;;12.95;4.78;;;18.40;63.60;;;;;;5052497;28;20029;-81
2021/06/06 00:05:58;;;;;;;7.32;4.43;;;18.40;63.80;;;;;;5052422;28;20083;-81
2021/06/06 00:08:26;;;;;;;7.97;5.03;;;18.30;63.50;;;;;;5049753;28;20041;-81
2021/06/06 00:10:59;;;;;;;11.27;4.85;;;18.20;63.70;;;;;;5052461;28;20054;-80
2021/06/06 00:13:26;;;;;;;15.50;4.38;;;18.20;64.10;;;;;;5054083;28;20032;-80
2021/06/06 00:15:52;;;;;;;14.73;5.18;;;18.30;64.20;;;;;;5053722;28;20333;-81
2021/06/06 00:18:17;;;;;;;12.13;5.63;;;18.30;64.10;;;;;;5053309;28;20028;-80
2021/06/06 00:20:44;;;;;;;18.20;5.03;;;18.30;64.20;;;;;;5053612;28;20021;-72
2021/06/06 00:23:10;;;;;;;14.68;4.95;;;18.30;64.20;;;;;;5051694;28;20447;-71
2021/06/06 00:25:37;;;;;;;17.67;5.22;;;18.20;64.30;;;;;;5051586;28;20021;-72
2021/06/06 00:28:04;;;;;;;13.43;4.50;;;18.20;64.40;;;;;;5049943;28;20387;-73
2021/06/06 00:30:30;;;;;;;7.68;4.65;;;18.10;64.70;;;;;;5051573;28;20079;-73
2021/06/06 00:32:56;;;;;;;14.27;4.63;;;18.00;64.90;;;;;;5051283;28;20074;-73
2021/06/06 00:35:23;;;;;;;11.25;5.25;;;18.00;65.00;;;;;;5051604;28;20519;-73
2021/06/06 00:37:49;;;;;;;10.57;5.07;;;18.00;65.20;;;;;;5051419;28;20061;-73
2021/06/06 00:40:21;;;;;;;10.23;4.88;;;17.90;65.40;;;;;;5051509;28;20056;-73
2021/06/06 00:42:47;;;;;;;9.18;5.10;;;17.80;65.60;;;;;;5051496;28;20044;-73
2021/06/06 00:45:17;;;;;;;5.75;4.65;;;17.80;65.80;;;;;;5051465;28;20021;-73
2021/06/06 00:47:43;;;;;;;10.63;5.00;;;17.70;65.90;;;;;;5051241;28;20029;-72
2021/06/06 00:50:14;;;;;;;17.05;5.00;;;17.70;65.80;;;;;;5051310;28;20021;-72
2021/06/06 00:52:43;;;;;;;6.50;4.80;;;17.60;66.00;;;;;;5051333;28;20380;-73
2021/06/06 00:55:10;;;;;;;9.75;4.95;;;17.50;65.90;;;;;;5051111;28;20025;-73
2021/06/06 00:57:38;;;;;;;10.85;5.20;;;17.50;66.00;;;;;;5049863;28;20036;-73
2021/06/06 01:00:19;;;;;;;8.45;5.47;;;17.40;66.10;;;;;;5051170;28;20518;-73
2021/06/06 01:02:46;;;;;;;16.15;5.75;;;17.40;66.20;;;;;;5051162;28;20029;-73
2021/06/06 01:05:31;;;;;;;13.23;6.40;;;17.30;66.60;;;;;;5052029;28;20095;-81
2021/06/06 01:07:57;;;;;;;9.52;6.15;;;17.30;67.40;;;;;;5053011;28;20025;-81
2021/06/06 01:10:23;;;;;;;11.40;5.90;;;17.20;67.50;;;;;;5056517;28;20033;-81
2021/06/06 01:12:56;;;;;;;10.25;7.00;;;17.10;67.80;;;;;;5056185;28;20036;-81
2021/06/06 01:15:33;;;;;;;13.07;6.85;;;17.10;68.20;;;;;;5055355;28;20108;-73
2021/06/06 01:18:21;;;;;;;13.15;7.07;;;17.00;68.40;;;;;;5054660;28;20110;-73
2021/06/06 01:21:05;;;;;;;17.45;7.70;;;17.00;68.70;;;;;;5054501;28;20025;-73
2021/06/06 01:23:36;;;;;;;13.88;7.70;;;16.90;68.60;;;;;;5054984;28;20040;-73
2021/06/06 01:26:10;;;;;;;16.50;6.90;;;16.90;68.80;;;;;;5054480;28;20025;-73
2021/06/06 01:28:43;;;;;;;13.85;6.60;;;16.80;69.00;;;;;;5054472;28;20048;-73
2021/06/06 01:31:10;;;;;;;;;;;16.80;69.30;;;;;;5054915;28;20040;-73
2021/06/06 01:33:48;;;;;;;11.75;6.57;;;16.70;68.90;;;;;;5054578;28;19908;-73
2021/06/06 01:36:19;;;;;;;11.00;6.78;;;16.70;68.80;;;;;;5054679;28;20037;-73
2021/06/06 01:38:51;;;;;;;10.98;6.38;;;16.60;68.80;;;;;;5054428;28;20029;-72
2021/06/06 01:41:20;;;;;;;13.23;6.13;;;16.60;69.20;;;;;;5054379;28;20108;-72
2021/06/06 01:43:50;;;;;;;9.50;6.50;;;16.60;69.70;;;;;;5054214;28;20119;-72
2021/06/06 01:46:28;;;;;;;10.80;6.50;;;16.50;69.90;;;;;;5054222;28;20095;-72
2021/06/06 01:48:55;;;;;;;15.35;6.45;;;16.50;70.20;;;;;;5054301;28;20028;-72
2021/06/06 01:51:38;;;;;;;13.30;6.93;;;16.50;70.50;;;;;;5054050;28;20112;-72
2021/06/06 01:54:07;;;;;;;16.63;7.43;;;16.40;70.80;;;;;;5054170;28;20029;-72
2021/06/06 01:56:37;;;;;;;15.23;6.35;;;16.40;71.00;;;;;;5054110;28;20410;-72
2021/06/06 01:59:09;;;;;;;14.18;6.18;;;16.40;71.20;;;;;;5053975;28;20021;-72
2021/06/06 02:01:36;;;;;;;14.93;6.63;;;16.30;71.50;;;;;;5052772;28;20017;-73
2021/06/06 02:04:03;;;;;;;11.38;6.28;;;16.30;71.40;;;;;;5054099;28;20059;-72
2021/06/06 02:06:49;;;;;;;13.90;7.20;;;16.40;71.60;;;;;;5054194;28;20028;-73
2021/06/06 02:09:20;;;;;;;24.15;13.15;;;16.40;71.70;;;;;;5054045;28;20111;-80
2021/06/06 02:11:49;;;;;;;17.48;10.77;;;16.40;71.70;;;;;;5064399;28;20570;-80
2021/06/06 02:14:21;;;;;;;14.93;6.35;;;16.40;71.80;;;;;;5061195;28;20029;-81
2021/06/06 02:16:54;;;;;;;16.42;6.47;;;16.40;72.00;;;;;;5053909;28;20029;-81
2021/06/06 02:19:24;;;;;;;15.88;6.82;;;16.50;72.30;;;;;;5055003;28;20486;-81
2021/06/06 02:21:56;;;;;;;12.95;6.53;;;16.40;72.30;;;;;;5055058;28;20024;-83
2021/06/06 02:24:22;;;;;;;13.88;7.70;;;16.50;72.60;;;;;;5056339;28;20033;-82
2021/06/06 02:27:00;;;;;;;11.88;7.40;;;16.50;72.60;;;;;;5054642;28;20035;-82
2021/06/06 02:30:03;;;;;;;18.20;7.40;;;16.50;72.80;;;;;;5055100;28;20037;-82
2021/06/06 02:32:58;;;;;;;18.58;8.23;;;16.60;72.90;;;;;;5053903;28;20051;-82
2021/06/06 02:35:36;;;;;;;19.15;7.40;;;16.70;72.90;;;;;;5053992;28;20140;-82
2021/06/06 02:38:16;;;;;;;10.43;7.07;;;16.70;72.80;;;;;;5054820;28;20021;-82
2021/06/06 02:40:49;;;;;;;11.57;7.10;;;16.80;72.80;;;;;;5055883;28;20597;-83
2021/06/06 02:43:20;;;;;;;14.23;7.70;;;16.90;72.80;;;;;;5056329;28;20119;-83
2021/06/06 02:45:47;;;;;;;17.25;7.97;;;16.90;72.70;;;;;;5055496;28;20013;-83
2021/06/06 02:48:35;;;;;;;10.73;6.72;;;17.00;72.70;;;;;;5073410;28;20056;-82
2021/06/06 02:51:06;;;;;;;18.88;7.68;;;17.00;72.60;;;;;;5067741;28;20036;-82
2021/06/06 02:53:36;;;;;;;13.02;6.50;;;17.10;72.60;;;;;;5054833;28;20025;-82
2021/06/06 02:56:21;;;;;;;19.50;7.10;;;17.20;72.50;;;;;;5054869;28;20056;-82
2021/06/06 02:59:14;;;;;;;14.27;6.28;;;17.20;72.30;;;;;;5054287;28;20124;-83
2021/06/06 03:01:44;;;;;;;14.65;6.47;;;17.30;72.30;;;;;;5053090;28;20027;-82
2021/06/06 03:04:13;;;;;;;13.73;6.53;;;17.30;72.20;;;;;;5053115;28;20438;-82
2021/06/06 03:06:55;;;;;;;14.50;7.47;;;17.40;72.20;;;;;;5054275;28;20047;-82
2021/06/06 03:09:21;;;;;;;;;;;17.40;72.10;;;;;;5054919;28;20476;-81
2021/06/06 03:11:50;;;;;;;18.27;6.53;;;17.50;71.70;;;;;;5054375;28;19905;-82
2021/06/06 03:14:23;;;;;;;10.45;5.65;;;17.50;71.80;;;;;;5054114;28;20071;-82
2021/06/06 03:17:22;;;;;;;15.48;5.38;;;17.50;71.80;;;;;;5053785;28;20471;-81
2021/06/06 03:19:53;;;;;;;8.20;5.07;;;17.50;71.60;;;;;;5052497;28;20053;-81
2021/06/06 03:22:23;;;;;;;11.20;5.70;;;17.50;71.50;;;;;;5052815;28;20037;-82
2021/06/06 03:24:56;;;;;;;16.98;5.90;;;17.60;72.20;;;;;;5060284;28;20082;-82
2021/06/06 03:27:24;;;;;;;16.05;5.68;;;17.60;71.60;;;;;;5058629;28;20029;-82
2021/06/06 03:30:06;;;;;;;15.57;7.05;;;17.60;71.50;;;;;;5054227;28;20041;-83
2021/06/06 03:32:37;;;;;;;23.20;7.20;;;17.60;71.40;;;;;;5053773;28;20033;-83
2021/06/06 03:35:05;;;;;;;10.95;6.60;;;17.60;71.20;;;;;;5054063;28;20052;-83
2021/06/06 03:37:31;;;;;;;13.70;6.68;;;17.60;71.10;;;;;;5052626;28;20048;-83
2021/06/06 03:39:57;;;;;;;12.70;6.30;;;17.60;71.10;;;;;;5052362;28;20456;-83
2021/06/06 03:42:24;;;;;;;15.45;6.80;;;17.60;71.60;;;;;;5053746;28;20028;-83
2021/06/06 03:44:50;;;;;;;13.68;6.22;;;17.60;71.00;;;;;;5053489;28;20021;-83
2021/06/06 03:47:16;;;;;;;11.00;6.50;;;17.60;71.00;;;;;;5053757;28;20032;-83
2021/06/06 03:49:42;;;;;;;14.73;6.10;;;17.60;71.00;;;;;;5054133;28;20021;-83
2021/06/06 03:52:08;;;;;;;13.63;6.18;;;17.60;71.10;;;;;;5062543;28;20021;-83
2021/06/06 03:54:35;;;;;;;14.23;6.15;;;17.60;71.20;;;;;;5056567;28;20027;-83
2021/06/06 03:57:00;;;;;;;13.68;6.25;;;17.70;71.30;;;;;;5065890;28;20035;-81
2021/06/06 03:59:26;;;;;;;12.07;6.75;;;17.70;71.30;;;;;;5059628;28;20021;-82
2021/06/06 04:01:53;;;;;;;9.50;5.88;;;17.70;71.40;;;;;;5059631;28;20112;-83
2021/06/06 04:04:20;;;;;;;13.50;5.70;;;17.70;72.00;;;;;;5054530;28;20022;-75
2021/06/06 04:06:46;;;;;;;13.63;5.70;;;17.80;71.40;;;;;;5051748;28;20112;-74
2021/06/06 04:09:13;;;;;;;13.75;6.15;;;17.80;71.10;;;;;;5051975;28;20035;-75
2021/06/06 04:11:39;;;;;;;12.45;5.50;;;17.90;71.00;;;;;;5051967;28;20406;-73
2021/06/06 04:14:06;;;;;;;13.85;5.68;;;17.90;70.80;;;;;;5051685;28;20040;-74
2021/06/06 04:16:33;;;;;;;11.15;5.63;;;18.00;70.70;;;;;;5050610;28;20075;-74
2021/06/06 04:18:59;;;;;;;18.50;6.63;;;18.00;70.50;;;;;;5051840;28;20826;-74
2021/06/06 04:21:27;;;;;;;14.60;6.55;;;18.00;70.40;;;;;;5050145;28;20021;-73
2021/06/06 04:23:54;;;;;;;14.63;6.55;;;18.10;70.60;;;;;;5051596;28;20843;-73
2021/06/06 04:26:20;;;;;;;14.40;6.50;;;18.10;70.90;;;;;;5049875;28;20040;-73
2021/06/06 04:28:47;;;;;;;9.85;6.50;;;18.20;71.30;;;;;;5049953;28;20388;-73
2021/06/06 04:31:13;;;;;;;14.70;7.57;;;18.20;71.60;;;;;;5050140;28;20078;-72
2021/06/06 04:33:39;;;;;;;19.48;7.07;;;18.20;71.90;;;;;;5051388;28;20029;-73
2021/06/06 04:36:06;;;;;;;11.80;7.50;;;18.20;72.20;;;;;;5051269;28;20056;-72
2021/06/06 04:38:33;;;;;;;15.98;7.13;;;18.20;72.40;;;;;;5051355;28;20057;-72
2021/06/06 04:41:02;;;;;;;15.52;7.75;;;18.30;72.40;;;;;;5051936;28;20045;-73
2021/06/06 04:43:28;;;;;;;15.27;8.45;;;18.40;72.50;;;;;;5051616;28;20074;-73
2021/06/06 04:45:54;;;;;;;11.45;8.38;;;18.40;72.10;;;;;;5055006;28;20414;-73
2021/06/06 04:48:30;;;;;;;19.02;9.05;;;18.50;71.80;;;;;;5054909;28;20021;-73
2021/06/06 04:50:59;;;;;;;22.42;7.28;;;18.50;71.40;;;;;;5053757;28;20395;-73
2021/06/06 04:53:25;;;;;;;14.38;6.78;;;18.60;71.10;;;;;;5054646;28;20543;-73
2021/06/06 04:55:52;;;;;;;14.50;6.38;;;18.70;70.60;;;;;;5054845;28;20104;-72
2021/06/06 04:58:20;;;;;;;10.05;6.07;;;18.80;70.10;;;;;;5055077;28;20025;-74
2021/06/06 05:00:47;;;;;;;9.93;5.65;;;18.80;69.50;;;;;;5055018;28;20025;-74
2021/06/06 05:03:15;;;;;;;12.57;5.00;;;18.90;69.20;;;;;;5054947;28;20031;-74
2021/06/06 05:05:41;;;;;;;12.32;5.30;;;19.00;68.60;;;;;;5054873;28;20394;-73
2021/06/06 05:08:08;;;;;;;9.60;4.60;;;19.10;68.10;;;;;;5054927;28;20075;-73
2021/06/06 05:10:37;;;;;;;8.68;4.68;;;19.20;67.60;;;;;;5054602;28;20025;-73
2021/06/06 05:13:04;;;;;;;15.35;4.68;;;19.30;66.90;;;;;;5054680;28;20131;-73
2021/06/06 05:15:30;;;;;;;10.82;3.90;;;19.40;66.40;;;;;;5053571;28;20049;-74
2021/06/06 05:17:56;;;;;;;9.00;4.05;;;19.50;66.10;;;;;;5053320;28;20032;-73
2021/06/06 05:20:25;;;;;;;8.50;4.28;;;19.50;65.60;;;;;;5053173;28;20020;-74
2021/06/06 05:22:50;;;;;;;8.38;4.10;;;19.60;65.10;;;;;;5054660;28;20036;-74
2021/06/06 05:25:17;;;;;;;7.53;4.18;;;19.70;64.70;;;;;;5054378;28;20375;-73
2021/06/06 05:27:43;;;;;;;14.95;4.40;;;19.70;64.30;;;;;;5054525;28;20028;-74
2021/06/06 05:30:13;;;;;;;8.23;4.18;;;19.80;64.00;;;;;;5054410;28;20025;-74
2021/06/06 05:32:39;;;;;;;6.25;3.78;;;19.90;63.50;;;;;;5054193;28;20025;-74
2021/06/06 05:35:06;;;;;;;10.07;3.90;;;20.00;62.90;;;;;;5054220;28;20486;-74
2021/06/06 05:37:31;;;;;;;11.35;4.00;;;20.10;62.40;;;;;;5054950;28;20025;-84
2021/06/06 05:39:57;;;;;;;9.45;3.65;;;20.20;62.00;;;;;;5067766;28;20084;-84
2021/06/06 05:42:23;;;;;;;8.93;3.97;;;20.40;61.50;;;;;;5073697;28;20025;-83
2021/06/06 05:44:48;;;;;;;7.32;3.47;;;20.60;61.00;;;;;;5075225;28;20052;-82
2021/06/06 05:47:14;;;;;;;8.98;4.28;;;20.80;60.30;;;;;;5065098;28;20072;-83
2021/06/06 05:49:40;;;;;;;9.18;4.05;;;21.00;60.00;;;;;;5055011;28;20025;-84
2021/06/06 05:52:06;;;;;;;13.82;4.70;;;21.10;59.60;;;;;;5058381;28;20059;-83
2021/06/06 05:54:32;;;;;;;7.35;4.13;;;21.20;59.10;;;;;;5057962;28;20036;-84
2021/06/06 05:56:57;;;;;;;12.82;4.20;;;21.30;58.80;;;;;;5055621;28;20108;-83
2021/06/06 05:59:23;;;;;;;10.02;3.72;;;21.40;58.70;;;;;;5055573;28;20468;-84
2021/06/06 06:01:49;;;;;;;10.45;4.00;;;21.60;58.60;;;;;;5055701;28;20029;-83
2021/06/06 06:04:15;;;;;;;12.23;3.50;;;21.70;58.60;;;;;;5055599;28;20025;-84
2021/06/06 06:06:41;;;;;;;9.35;4.30;;;21.80;58.60;;;;;;5055412;28;20112;-84
2021/06/06 06:09:06;;;;;;;9.38;3.92;;;22.00;58.60;;;;;;5053882;28;20120;-84
2021/06/06 06:11:33;;;;;;;5.63;4.10;;;22.00;58.50;;;;;;5055390;28;20383;-83
2021/06/06 06:13:59;;;;;;;7.55;4.28;;;22.20;58.20;;;;;;5055421;28;20024;-84
2021/06/06 06:16:30;;;;;;;7.97;4.00;;;22.40;57.80;;;;;;5054997;28;20032;-84
2021/06/06 06:18:56;;;;;;;6.47;4.33;;;22.50;57.70;;;;;;5055059;28;20051;-84
2021/06/06 06:21:24;;;;;;;9.45;4.45;;;22.70;57.50;;;;;;5053999;28;20299;-84
2021/06/06 06:23:50;;;;;;;15.10;4.30;;;22.80;57.70;;;;;;5053668;28;20031;-84
2021/06/06 06:26:16;;;;;;;9.55;4.22;;;22.90;57.80;;;;;;5055180;28;20033;-84
2021/06/06 06:28:46;;;;;;;8.80;3.83;;;23.10;57.60;;;;;;5058928;28;20119;-82
2021/06/06 06:31:13;;;;;;;9.95;4.28;;;23.20;57.40;;;;;;5056548;28;20100;-84
2021/06/06 06:33:39;;;;;;;11.88;4.78;;;23.20;57.50;;;;;;5054998;28;20020;-82
2021/06/06 06:36:05;;;;;;;9.48;4.03;;;23.30;57.40;;;;;;5054688;28;20021;-83
2021/06/06 06:38:33;;;;;;;6.28;3.60;;;23.30;57.50;;;;;;5054766;28;20372;-84
2021/06/06 06:40:59;;;;;;;8.30;3.47;;;23.30;57.50;;;;;;5054885;28;20345;-83
2021/06/06 06:43:25;;;;;;;7.63;3.42;;;23.30;57.40;;;;;;5054370;28;20025;-83
2021/06/06 06:45:50;;;;;;;6.97;3.50;;;23.20;57.40;;;;;;5054410;28;20446;-85
2021/06/06 06:48:19;;;;;;;9.30;4.15;;;23.20;57.50;;;;;;5053210;28;20415;-84
2021/06/06 06:50:46;;;;;;;6.82;3.63;;;23.20;57.40;;;;;;5053348;28;20070;-82
2021/06/06 06:53:13;;;;;;;11.00;3.90;;;23.20;57.30;;;;;;5052299;28;20064;-82
2021/06/06 06:55:39;;;;;;;12.38;4.60;;;23.20;57.30;;;;;;5053205;28;20024;-81
2021/06/06 06:58:06;;;;;;;6.50;3.13;;;23.20;57.30;;;;;;5052155;28;20028;-82
2021/06/06 07:00:41;;;;;;;11.18;5.15;;;23.20;57.40;;;;;;5054441;28;20075;-83
2021/06/06 07:03:09;;;;;;;9.27;5.20;;;23.10;57.60;;;;;;5058238;28;20044;-83
2021/06/06 07:05:35;;;;;;;9.27;4.57;;;23.20;57.80;;;;;;5055547;28;20025;-83
2021/06/06 07:08:02;;;;;;;7.07;3.80;;;23.10;57.70;;;;;;5054239;28;20033;-83
2021/06/06 07:10:31;;;;;;;8.90;4.68;;;23.10;57.80;;;;;;5057081;28;20040;-81
2021/06/06 07:12:58;;;;;;;15.13;5.20;;;23.20;58.00;;;;;;5054652;28;20057;-75
2021/06/06 07:15:24;;;;;;;6.68;3.95;;;23.30;58.30;;;;;;5051627;28;20132;-74
2021/06/06 07:17:50;;;;;;;11.18;4.18;;;23.40;58.40;;;;;;5052193;28;20028;-74
2021/06/06 07:20:20;;;;;;;8.70;3.72;;;23.50;58.20;;;;;;5051111;28;20021;-74
2021/06/06 07:22:46;;;;;;;10.50;3.67;;;23.60;57.60;;;;;;5052855;28;20452;-76
2021/06/06 07:25:16;;;;;;;9.68;3.00;;;23.70;57.20;;;;;;5052403;28;20103;-77
2021/06/06 07:27:44;;;;;;;6.30;3.08;;;23.80;56.80;;;;;;5051757;28;20036;-76
2021/06/06 07:30:46;;;;;;;10.38;3.45;;;23.90;56.60;;;;;;5052223;28;20053;-76
2021/06/06 07:33:13;;;;;;;9.55;3.47;;;24.10;56.30;;;;;;5052133;28;20529;-77
2021/06/06 07:35:39;;;;;;;5.63;3.38;;;24.30;56.00;;;;;;5050991;28;20039;-76
2021/06/06 07:38:05;;;;;;;6.90;2.80;;;24.40;55.50;;;;;;5051767;28;20021;-75
2021/06/06 07:40:35;;;;;;;8.25;3.10;;;24.60;55.10;;;;;;5051921;28;20455;-74
2021/06/06 07:43:00;;;;;;;19.48;3.85;;;24.80;54.60;;;;;;5051707;28;20096;-76
2021/06/06 07:45:28;;;;;;;5.28;3.75;;;25.00;54.30;;;;;;5050526;28;20196;-75
2021/06/06 07:47:54;;;;;;;7.93;3.20;;;25.10;53.90;;;;;;5051596;28;20021;-75
2021/06/06 07:50:22;;;;;;;3.88;2.97;;;25.20;53.80;;;;;;5051219;28;20100;-75
2021/06/06 07:52:48;;;;;;;8.05;3.28;;;25.20;53.80;;;;;;5050281;28;20024;-75
2021/06/06 07:55:16;;;;;;;5.43;3.20;;;25.20;53.80;;;;;;5051521;28;20027;-77
2021/06/06 07:57:43;;;;;;;10.45;3.40;;;25.20;54.10;;;;;;5049920;28;20028;-76
2021/06/06 08:00:12;;;;;;;10.73;3.35;;;25.20;54.40;;;;;;5051398;28;20025;-75
2021/06/06 08:02:45;;;;;;;7.20;3.53;;;25.30;54.40;;;;;;5050485;28;20032;-76
2021/06/06 08:05:11;;;;;;;7.97;2.75;;;25.30;54.50;;;;;;5051430;28;20074;-83
2021/06/06 08:07:37;;;;;;;7.72;3.25;;;25.30;54.70;;;;;;5051136;28;20464;-82
2021/06/06 08:10:07;;;;;;;11.43;3.28;;;25.50;54.50;;;;;;5050062;28;20051;-82
2021/06/06 08:12:32;;;;;;;5.65;3.03;;;25.60;54.40;;;;;;5051838;28;20029;-82
2021/06/06 08:14:58;;;;;;;11.40;4.22;;;25.70;54.00;;;;;;5051258;28;20079;-82
2021/06/06 08:17:24;;;;;;;8.82;3.72;;;25.90;53.50;;;;;;5054629;28;20021;-82
2021/06/06 08:19:51;;;;;;;10.38;3.65;;;26.10;53.30;;;;;;5058914;28;20024;-81
2021/06/06 08:22:17;;;;;;;9.68;3.60;;;26.20;53.20;;;;;;5056622;28;20033;-81
2021/06/06 08:24:43;;;;;;;9.00;3.70;;;26.50;52.90;;;;;;5056717;28;20142;-82
2021/06/06 08:27:09;;;;;;;9.00;3.50;;;26.60;52.60;;;;;;5054824;28;20107;-83
2021/06/06 08:29:34;;;;;;;9.65;3.60;;;26.70;52.10;;;;;;5053700;28;20869;-81
2021/06/06 08:32:01;;;;;;;3.78;2.83;;;26.70;52.20;;;;;;5055257;28;20028;-81
2021/06/06 08:34:28;;;;;;;7.50;3.00;;;26.70;51.00;;;;;;5055398;28;20048;-83
2021/06/06 08:36:59;;;;;;;8.38;3.40;;;26.60;50.50;;;;;;5055492;28;20159;-82
2021/06/06 08:39:29;;;;;;;9.23;3.50;;;26.50;50.60;;;;;;5055209;28;20024;-82
2021/06/06 08:42:07;;;;;;;9.05;3.30;;;26.30;50.70;;;;;;5054332;28;20261;-82
2021/06/06 08:44:36;;;;;;;10.95;3.72;;;26.10;51.00;;;;;;5055007;28;20078;-82
2021/06/06 08:47:12;;;;;;;35.70;24.48;;;26.00;51.40;;;;;;5055123;28;20025;-82
2021/06/06 08:49:47;;;;;;;10.60;4.15;;;25.90;51.80;;;;;;5055726;28;20029;-83
2021/06/06 08:52:27;;;;;;;8.52;4.15;;;25.90;51.90;;;;;;5057929;28;20430;-82
2021/06/06 08:55:07;;;;;;;9.07;3.95;;;25.80;51.80;;;;;;5058234;28;20025;-81
2021/06/06 08:57:32;;;;;;;8.27;4.20;;;25.80;51.90;;;;;;5062785;28;20028;-82
2021/06/06 09:00:00;;;;;;;8.75;3.58;;;25.70;52.00;;;;;;5058523;28;20025;-82
2021/06/06 09:02:35;;;;;;;12.75;4.35;;;25.60;52.50;;;;;;5056490;28;20497;-81
2021/06/06 09:05:05;;;;;;;11.15;3.70;;;25.50;53.10;;;;;;5056349;28;20025;-83
2021/06/06 09:07:34;;;;;;;12.82;4.90;;;25.40;53.40;;;;;;5054285;28;20044;-83
2021/06/06 09:10:15;;;;;;;5.60;3.30;;;25.20;53.50;;;;;;5055704;28;20039;-82
2021/06/06 09:12:42;;;;;;;8.73;4.60;;;25.10;53.70;;;;;;5055434;28;20033;-83
2021/06/06 09:15:11;;;;;;;11.50;4.57;;;25.00;53.80;;;;;;5055179;28;20028;-82
2021/06/06 09:17:39;;;;;;;7.90;3.95;;;24.80;54.20;;;;;;5055214;28;20028;-82
2021/06/06 09:20:27;;;;;;;11.77;3.58;;;24.80;54.30;;;;;;5055046;28;20021;-82
2021/06/06 09:23:11;;;;;;;9.13;3.53;;;24.90;54.60;;;;;;5050581;28;20049;-82
2021/06/06 09:25:40;;;;;;;7.40;3.22;;;24.90;54.30;;;;;;5054635;28;20029;-83
2021/06/06 09:28:13;;;;;;;15.25;3.53;;;24.80;54.50;;;;;;5056978;28;20117;-83
2021/06/06 09:30:41;;;;;;;13.18;4.45;;;24.60;54.60;;;;;;5054192;28;20029;-82
2021/06/06 09:33:33;;;;;;;9.35;4.28;;;24.40;54.90;;;;;;5058053;28;20025;-83
2021/06/06 09:36:03;;;;;;;6.38;3.30;;;24.20;55.40;;;;;;5054806;28;20037;-83
2021/06/06 09:38:32;;;;;;;13.98;7.53;;;24.00;55.60;;;;;;5055141;28;20024;-83
2021/06/06 09:41:16;;;;;;;11.35;3.65;;;23.80;56.00;;;;;;5055129;28;20021;-84
2021/06/06 09:43:55;;;;;;;6.93;3.35;;;23.70;56.40;;;;;;5053824;28;20100;-83
2021/06/06 09:46:20;;;;;;;8.10;3.65;;;23.60;56.60;;;;;;5052716;28;20017;-83
2021/06/06 09:48:49;;;;;;;10.30;4.13;;;23.50;57.00;;;;;;5054357;28;20067;-81
2021/06/06 09:51:22;;;;;;;12.10;4.15;;;23.50;57.20;;;;;;5054513;28;20025;-84
2021/06/06 09:53:49;;;;;;;6.60;3.00;;;23.50;57.20;;;;;;5054308;28;20025;-83
2021/06/06 09:56:24;;;;;;;16.13;3.70;;;23.60;56.90;;;;;;5052562;28;20032;-83
2021/06/06 09:58:50;;;;;;;13.07;4.13;;;23.60;56.70;;;;;;5054949;28;20036;-83
2021/06/06 10:01:30;;;;;;;4.38;3.03;;;23.70;56.90;;;;;;5054040;28;20082;-82
2021/06/06 10:04:01;;;;;;;7.00;3.60;;;23.80;57.10;;;;;;5054433;28;20155;-82
2021/06/06 10:06:36;;;;;;;29.73;18.33;;;23.80;57.20;;;;;;5054375;28;20032;-84
2021/06/06 10:09:14;;;;;;;12.07;5.60;;;23.80;57.40;;;;;;5054312;28;20781;-84
2021/06/06 10:11:48;;;;;;;10.32;4.70;;;23.80;57.60;;;;;;5056720;28;20052;-83
2021/06/06 10:14:21;;;;;;;10.70;4.10;;;23.80;57.70;;;;;;5054942;28;20056;-84
2021/06/06 10:16:50;;;;;;;8.95;5.05;;;23.80;57.60;;;;;;5054497;28;20176;-83
2021/06/06 10:19:26;;;;;;;13.93;4.18;;;23.80;57.50;;;;;;5054210;28;20025;-84
2021/06/06 10:21:54;;;;;;;13.30;4.20;;;23.90;57.40;;;;;;5053490;28;20082;-81
2021/06/06 10:24:32;;;;;;;13.40;4.63;;;23.90;57.20;;;;;;5051987;28;20039;-83
2021/06/06 10:27:04;;;;;;;14.68;5.72;;;23.80;57.00;;;;;;5053825;28;20033;-82
2021/06/06 10:29:45;;;;;;;7.82;3.85;;;23.80;56.90;;;;;;5053939;28;20111;-85
2021/06/06 10:32:30;;;;;;;7.57;3.80;;;23.70;56.80;;;;;;5052934;28;20044;-83
2021/06/06 10:35:03;;;;;;;8.15;3.42;;;23.60;56.90;;;;;;5060697;28;20037;-83
2021/06/06 10:37:30;;;;;;;6.47;4.10;;;23.50;57.10;;;;;;5070775;28;20036;-83
2021/06/06 10:40:06;;;;;;;9.43;3.92;;;23.30;57.30;;;;;;5067967;28;20025;-83
2021/06/06 10:42:39;;;;;;;11.57;4.50;;;23.10;57.80;;;;;;5059816;28;20021;-83
2021/06/06 10:45:27;;;;;;;10.15;4.40;;;23.10;58.00;;;;;;5058916;28;20375;-81
2021/06/06 10:48:02;;;;;;;14.30;6.75;;;23.00;58.20;;;;;;5055616;28;20063;-82
2021/06/06 10:50:40;;;;;;;6.53;4.82;;;23.00;58.40;;;;;;5055071;28;20029;-83
2021/06/06 10:53:17;;;;;;;11.98;7.38;;;23.10;58.70;;;;;;5053819;28;20021;-82
2021/06/06 10:55:51;;;;;;;11.57;5.35;;;23.20;58.80;;;;;;5054046;28;20104;-83
2021/06/06 10:58:28;;;;;;;33.97;20.23;;;23.20;58.80;;;;;;5052483;28;20426;-84
2021/06/06 11:01:06;;;;;;;34.00;20.23;;;23.30;59.00;;;;;;5053584;28;20029;-83
2021/06/06 11:03:35;;;;;;;49.85;29.77;;;23.40;59.20;;;;;;5053199;28;20024;-83
2021/06/06 11:06:07;;;;;;;111.07;86.63;;;23.50;59.00;;;;;;5052852;28;20822;-83
2021/06/06 11:08:42;;;;;;;21.67;13.57;;;23.60;58.90;;;;;;5058119;28;20020;-83
2021/06/06 11:11:36;;;;;;;25.92;13.70;;;23.70;59.50;;;;;;5062171;28;20040;-83
2021/06/06 11:14:07;;;;;;;53.25;36.20;;;23.90;58.60;;;;;;5055532;28;20051;-84
2021/06/06 11:16:38;;;;;;;24.30;11.50;;;24.10;57.90;;;;;;5054384;28;20103;-83
2021/06/06 11:19:29;;;;;;;12.05;5.38;;;24.20;57.60;;;;;;5052014;28;20079;-83
2021/06/06 11:22:01;;;;;;;55.78;39.35;;;24.30;57.00;;;;;;5050786;28;20036;-80
2021/06/06 11:24:41;;;;;;;21.23;10.68;;;24.50;56.60;;;;;;5054366;28;20017;-82
2021/06/06 11:27:10;;;;;;;18.75;7.47;;;24.80;56.30;;;;;;5053645;28;20057;-82
2021/06/06 11:30:07;;;;;;;15.10;5.72;;;25.00;55.90;;;;;;5052627;28;20132;-85
2021/06/06 11:32:56;;;;;;;25.83;13.38;;;25.00;55.00;;;;;;5052509;28;20021;-84
2021/06/06 11:35:34;;;;;;;10.95;4.22;;;25.20;55.00;;;;;;5052919;28;20372;-83
2021/06/06 11:38:43;;;;;;;12.20;6.35;;;25.20;54.50;;;;;;5050733;28;20029;-84
2021/06/06 11:41:31;;;;;;;8.65;4.82;;;25.30;54.40;;;;;;5052579;28;20494;-83
2021/06/06 11:44:21;;;;;;;11.70;6.28;;;25.30;54.00;;;;;;5052031;28;20028;-83
2021/06/06 11:47:07;;;;;;;7.43;3.83;;;25.40;54.00;;;;;;5052097;28;20048;-84
2021/06/06 11:49:37;;;;;;;6.25;4.13;;;25.40;53.90;;;;;;5052271;28;20454;-85
2021/06/06 11:52:11;;;;;;;8.15;3.75;;;25.30;53.70;;;;;;5050159;28;20067;-83
2021/06/06 11:54:59;;;;;;;7.43;4.10;;;25.30;53.80;;;;;;5050776;28;20025;-84
2021/06/06 11:57:32;;;;;;;7.18;4.20;;;25.30;54.00;;;;;;5052410;28;20029;-84
2021/06/06 12:00:05;;;;;;;15.63;5.20;;;25.20;54.20;;;;;;5051768;28;20086;-83
2021/06/06 12:02:33;;;;;;;15.85;8.75;;;25.10;54.00;;;;;;5052557;28;20486;-84
2021/06/06 12:05:26;;;;;;;11.50;5.60;;;25.00;55.00;;;;;;5052681;28;20036;-83
2021/06/06 12:07:52;;;;;;;7.18;4.18;;;25.00;54.40;;;;;;5058571;28;20040;-83
2021/06/06 12:10:50;;;;;;;11.57;5.00;;;25.00;54.70;;;;;;5064827;28;20847;-83
2021/06/06 12:13:23;;;;;;;10.10;5.50;;;24.90;54.90;;;;;;5062753;28;20383;-83
2021/06/06 12:15:48;;;;;;;11.73;4.63;;;25.00;54.90;;;;;;5060817;28;20021;-83
2021/06/06 12:18:19;;;;;;;10.73;5.00;;;25.10;54.90;;;;;;5061616;28;20555;-82
2021/06/06 12:20:58;;;;;;;11.80;5.03;;;25.20;54.90;;;;;;5059234;28;20021;-83
2021/06/06 12:23:33;;;;;;;9.05;5.38;;;25.20;54.80;;;;;;5058549;28;20025;-83
2021/06/06 12:26:25;;;;;;;11.23;4.75;;;25.30;54.70;;;;;;5054225;28;20021;-84
2021/06/06 12:28:54;;;;;;;7.60;4.03;;;25.40;54.60;;;;;;5051599;28;20060;-82
2021/06/06 12:31:44;;;;;;;18.67;4.30;;;25.40;53.80;;;;;;5051825;28;20025;-83
2021/06/06 12:34:25;;;;;;;17.08;5.57;;;25.30;52.90;;;;;;5052520;28;20083;-83
2021/06/06 12:36:57;;;;;;;18.63;5.80;;;25.30;52.50;;;;;;5052455;28;20066;-82
2021/06/06 12:39:23;;;;;;;11.07;5.28;;;25.20;52.60;;;;;;5052967;28;20075;-82
2021/06/06 12:41:52;;;;;;;15.20;4.88;;;25.10;52.90;;;;;;5052015;28;20017;-82
2021/06/06 12:44:22;;;;;;;8.23;4.10;;;25.00;53.30;;;;;;5051038;28;20029;-84
2021/06/06 12:46:56;;;;;;;15.20;7.10;;;24.90;53.50;;;;;;5050560;28;20475;-83
2021/06/06 12:49:49;;;;;;;14.32;8.77;;;24.90;53.80;;;;;;5051404;28;20110;-81
2021/06/06 12:52:22;;;;;;;;;;;24.90;53.70;;;;;;5050823;28;20103;-82
2021/06/06 12:54:48;;;;;;;13.85;6.03;;;24.90;53.80;;;;;;5050784;28;19958;-83
2021/06/06 12:57:18;;;;;;;12.05;5.47;;;24.90;53.90;;;;;;5051537;28;20459;-83
2021/06/06 12:59:46;;;;;;;11.68;4.82;;;25.00;54.10;;;;;;5051153;28;20029;-83
2021/06/06 13:02:12;;;;;;;18.30;4.32;;;25.00;54.10;;;;;;5052096;28;20021;-83